AOI weather

Ancona Falconara Airport
Ancona, Marche, Italy

Public forecast

Using degrees Celsius for public forecast. Weather courtesy of forecast.io.

Current aviation weather report (METAR) for Ancona Falconara Airport

Retrieved 2019/11/19 10:50 UTC (52 minutes ago):

LIPY 191050Z 20004KT CAVOK 15/08 Q1014

Aviation forecast (TAF) for Ancona Falconara Airport

Retrieved 2019/11/19 06:21 UTC (5 hours ago):

TAF LIPY 190500Z 1906/2006 16007KT 9999 SCT030